Time;durP1;ratioP1;P1;durP2;ratioP2;P2;SDS_P1;SDS_P2;PMS_P1;PMS_P2;Temp;Humidity;BMP_temperature;BMP_pressure;BME280_temperature;BME280_humidity;BME280_pressure;Samples;Min_cycle;Max_cycle;Signal;HPM_P1;HPM_P2
2022/09/18 00:00:47;;;;;;;0.70;0.70;;;;;;;17.58;97.68;97752.88;5074277;28;20236;-82
2022/09/18 00:03:14;;;;;;;0.90;0.73;;;;;;;17.60;96.53;97769.00;5074245;28;20200;-83
2022/09/18 00:05:42;;;;;;;0.93;0.67;;;;;;;17.43;94.94;97766.69;5074641;28;20240;-82
2022/09/18 00:08:09;;;;;;;0.57;0.40;;;;;;;17.41;92.16;97784.16;5074405;28;20198;-82
2022/09/18 00:10:41;;;;;;;0.43;0.43;;;;;;;17.32;90.54;97800.78;5074166;28;20246;-82
2022/09/18 00:13:10;;;;;;;0.30;0.30;;;;;;;17.16;89.53;97806.19;5074326;28;20288;-83
2022/09/18 00:15:37;;;;;;;0.30;0.30;;;;;;;17.00;90.17;97827.09;5073592;28;20229;-82
2022/09/18 00:18:04;;;;;;;0.37;0.37;;;;;;;16.81;90.82;97829.25;5073883;28;20195;-82
2022/09/18 00:20:33;;;;;;;0.30;0.30;;;;;;;16.71;91.04;97839.03;5073718;28;20725;-82
2022/09/18 00:23:00;;;;;;;0.37;0.37;;;;;;;16.56;91.53;97848.59;5073752;28;20201;-82
2022/09/18 00:25:27;;;;;;;0.30;0.30;;;;;;;16.41;91.13;97853.75;5074345;28;20237;-82
2022/09/18 00:27:54;;;;;;;0.20;0.20;;;;;;;16.28;91.26;97854.38;5073684;28;20215;-82
2022/09/18 00:30:22;;;;;;;0.67;0.50;;;;;;;16.12;92.22;97864.88;5073966;28;20238;-81
2022/09/18 00:32:49;;;;;;;0.20;0.20;;;;;;;16.02;92.05;97865.88;5073766;28;20581;-82
2022/09/18 00:35:16;;;;;;;0.30;0.30;;;;;;;15.96;92.65;97861.44;5074004;28;20226;-81
2022/09/18 00:37:43;;;;;;;0.30;0.30;;;;;;;15.80;92.09;97862.41;5074070;28;20658;-81
2022/09/18 00:40:10;;;;;;;0.30;0.30;;;;;;;15.59;92.27;97870.75;5074131;28;20626;-82
2022/09/18 00:42:37;;;;;;;0.30;0.30;;;;;;;15.49;91.28;97870.16;5073503;28;20678;-81
2022/09/18 00:45:05;;;;;;;0.33;0.33;;;;;;;15.40;91.93;97876.34;5073028;28;20677;-81
2022/09/18 00:47:38;;;;;;;0.20;0.20;;;;;;;15.41;91.38;97880.53;5073643;28;20206;-82
2022/09/18 00:50:09;;;;;;;0.43;0.43;;;;;;;15.34;91.93;97890.72;5074066;28;20226;-82
2022/09/18 00:52:47;;;;;;;0.57;0.47;;;;;;;15.27;91.99;97892.38;5073541;28;20199;-82
2022/09/18 00:55:15;;;;;;;0.40;0.40;;;;;;;15.27;92.06;97891.56;5073555;28;20221;-82
2022/09/18 00:57:46;;;;;;;0.20;0.20;;;;;;;15.19;91.69;97913.00;5073248;28;20623;-81
2022/09/18 01:00:14;;;;;;;0.30;0.30;;;;;;;15.01;91.72;97908.13;5073479;28;20234;-81
2022/09/18 01:02:44;;;;;;;0.20;0.20;;;;;;;14.85;90.66;97913.31;5073487;28;20288;-80
2022/09/18 01:05:13;;;;;;;0.17;0.17;;;;;;;14.74;89.60;97911.09;5073372;28;20252;-81
2022/09/18 01:07:55;;;;;;;0.10;0.10;;;;;;;14.71;89.43;97925.09;5073364;28;20206;-82
2022/09/18 01:10:34;;;;;;;0.20;0.20;;;;;;;14.70;88.51;97936.38;5073090;28;20230;-81
2022/09/18 01:13:10;;;;;;;0.10;0.10;;;;;;;14.60;88.32;97946.84;5073367;28;20208;-82
2022/09/18 01:15:41;;;;;;;0.20;0.20;;;;;;;14.61;88.48;97952.78;5072704;28;20218;-81
2022/09/18 01:18:20;;;;;;;0.20;0.20;;;;;;;14.54;89.15;97956.97;5073619;28;20627;-81
2022/09/18 01:21:09;;;;;;;0.07;0.07;;;;;;;14.49;88.64;97975.44;5073077;28;20243;-81
2022/09/18 01:24:12;;;;;;;0.10;0.10;;;;;;;14.49;88.32;97980.59;5073270;28;20207;-81
2022/09/18 01:26:49;;;;;;;0.20;0.20;;;;;;;14.40;87.86;97968.72;5069843;28;20222;-82
2022/09/18 01:29:28;;;;;;;0.17;0.17;;;;;;;14.29;88.51;97979.34;5073037;28;20187;-81
2022/09/18 01:32:01;;;;;;;0.10;0.10;;;;;;;14.23;88.68;97981.56;5073339;28;20262;-81
2022/09/18 01:34:34;;;;;;;0.10;0.10;;;;;;;14.09;88.26;97994.25;5072905;28;20203;-81
2022/09/18 01:37:06;;;;;;;0.20;0.20;;;;;;;13.93;88.54;98007.88;5072892;28;20225;-81
2022/09/18 01:39:38;;;;;;;0.10;0.10;;;;;;;13.86;88.76;98001.78;5072753;28;20328;-81
2022/09/18 01:42:08;;;;;;;0.07;0.07;;;;;;;13.85;89.22;98010.47;5072332;28;20753;-81
2022/09/18 01:44:39;;;;;;;0.10;0.10;;;;;;;13.73;88.85;98026.19;5073236;28;20697;-80
2022/09/18 01:47:10;;;;;;;0.10;0.10;;;;;;;13.60;88.98;98020.66;5072298;28;20614;-81
2022/09/18 01:49:39;;;;;;;0.10;0.10;;;;;;;13.52;89.26;98018.88;5074331;28;20200;-81
2022/09/18 01:52:10;;;;;;;0.10;0.10;;;;;;;13.46;89.57;98024.63;5072481;28;20732;-81
2022/09/18 01:54:41;;;;;;;0.10;0.10;;;;;;;13.43;89.63;98026.72;5073087;28;20201;-81
2022/09/18 01:57:12;;;;;;;0.10;0.10;;;;;;;13.33;88.56;98045.59;5073962;28;20214;-80
2022/09/18 01:59:44;;;;;;;0.07;0.07;;;;;;;13.16;89.15;98046.47;5073845;28;20201;-81
2022/09/18 02:02:18;;;;;;;0.10;0.10;;;;;;;13.06;89.22;98048.31;5073008;28;20233;-81
2022/09/18 02:04:48;;;;;;;0.10;0.10;;;;;;;13.08;88.89;98041.28;5073035;28;20655;-81
2022/09/18 02:07:23;;;;;;;0.10;0.10;;;;;;;13.09;88.72;98042.91;5072749;28;20203;-81
2022/09/18 02:09:50;;;;;;;0.10;0.10;;;;;;;13.06;88.11;98043.19;5072614;28;20217;-81
2022/09/18 02:12:23;;;;;;;0.10;0.10;;;;;;;13.07;87.92;98049.94;5072622;28;20203;-81
2022/09/18 02:14:56;;;;;;;0.10;0.10;;;;;;;12.99;87.66;98044.75;5071703;28;20666;-82
2022/09/18 02:17:27;;;;;;;0.10;0.10;;;;;;;12.88;88.15;98050.94;5071635;28;20234;-81
2022/09/18 02:19:59;;;;;;;0.10;0.10;;;;;;;12.86;88.23;98074.19;5072079;28;20686;-81
2022/09/18 02:22:29;;;;;;;0.10;0.10;;;;;;;12.77;87.44;98090.47;5071556;28;20205;-81
2022/09/18 02:25:01;;;;;;;0.10;0.10;;;;;;;12.82;87.11;98103.66;5073740;28;20199;-81
2022/09/18 02:27:29;;;;;;;0.10;0.10;;;;;;;12.76;87.14;98116.28;5074035;28;20214;-81
2022/09/18 02:30:01;;;;;;;0.10;0.10;;;;;;;12.67;86.69;98116.19;5072725;28;20654;-81
2022/09/18 02:32:28;;;;;;;0.10;0.10;;;;;;;12.72;86.70;98131.16;5072304;28;20210;-81
2022/09/18 02:34:55;;;;;;;0.10;0.10;;;;;;;12.68;86.39;98137.50;5072390;28;20594;-81
2022/09/18 02:37:32;;;;;;;0.10;0.10;;;;;;;12.67;86.72;98135.91;5073379;28;20228;-81
2022/09/18 02:40:10;;;;;;;0.17;0.17;;;;;;;12.62;86.86;98128.69;5072251;28;20264;-81
2022/09/18 02:42:43;;;;;;;0.10;0.10;;;;;;;12.63;86.85;98126.91;5072115;28;20601;-81
2022/09/18 02:45:19;;;;;;;0.10;0.10;;;;;;;12.56;87.45;98123.31;5071663;28;20232;-81
2022/09/18 02:47:59;;;;;;;0.20;0.20;;;;;;;12.61;87.41;98146.75;5072102;28;20603;-81
2022/09/18 02:50:33;;;;;;;0.10;0.10;;;;;;;12.54;87.89;98171.38;5071431;28;20214;-81
2022/09/18 02:53:06;;;;;;;0.13;0.13;;;;;;;12.58;88.50;98194.00;5071657;28;20194;-81
2022/09/18 02:55:42;;;;;;;0.50;0.50;;;;;;;12.43;90.00;98196.28;5071816;28;20223;-81
2022/09/18 02:58:16;;;;;;;0.97;0.47;;;;;;;12.48;89.88;98197.59;5072423;28;20198;-81
2022/09/18 03:00:45;;;;;;;0.10;0.10;;;;;;;12.48;90.17;98210.41;5072653;28;20253;-80
2022/09/18 03:03:14;;;;;;;0.10;0.10;;;;;;;12.45;90.06;98209.75;5072328;28;20231;-81
2022/09/18 03:05:41;;;;;;;0.20;0.20;;;;;;;12.37;90.28;98222.47;5071908;28;20223;-80
2022/09/18 03:08:08;;;;;;;0.10;0.10;;;;;;;12.38;90.22;98218.97;5071768;28;20202;-81
2022/09/18 03:10:34;;;;;;;0.30;0.30;;;;;;;12.33;89.91;98225.47;5072436;28;20223;-81
2022/09/18 03:13:01;;;;;;;0.30;0.30;;;;;;;12.34;90.00;98225.34;5072066;28;20210;-81
2022/09/18 03:15:28;;;;;;;0.10;0.10;;;;;;;12.37;89.36;98219.91;5071427;28;20226;-81
2022/09/18 03:17:56;;;;;;;0.30;0.30;;;;;;;12.30;89.24;98231.69;5071890;28;20202;-81
2022/09/18 03:20:23;;;;;;;0.17;0.17;;;;;;;12.30;88.95;98231.69;5070955;28;20260;-81
2022/09/18 03:22:50;;;;;;;0.07;0.07;;;;;;;12.25;88.83;98231.31;5070727;28;20634;-80
2022/09/18 03:25:17;;;;;;;0.17;0.17;;;;;;;12.16;88.78;98232.97;5070697;28;20591;-81
2022/09/18 03:27:44;;;;;;;0.23;0.23;;;;;;;12.13;89.00;98235.00;5071732;28;20190;-80
2022/09/18 03:30:12;;;;;;;0.10;0.10;;;;;;;12.13;89.18;98228.13;5071996;28;20218;-81
2022/09/18 03:32:39;;;;;;;0.10;0.10;;;;;;;12.11;89.08;98242.84;5072024;28;20461;-81
2022/09/18 03:35:08;;;;;;;0.10;0.10;;;;;;;12.09;88.42;98231.91;5071588;28;20245;-81
2022/09/18 03:37:35;;;;;;;0.37;0.37;;;;;;;12.07;88.05;98240.69;5070687;28;20203;-80
2022/09/18 03:40:02;;;;;;;0.10;0.10;;;;;;;12.06;87.88;98249.34;5072565;28;20580;-81
2022/09/18 03:42:29;;;;;;;0.10;0.10;;;;;;;12.04;87.31;98238.41;5071592;28;20270;-80
2022/09/18 03:44:56;;;;;;;0.10;0.10;;;;;;;12.03;87.05;98239.38;5071788;28;20606;-81
2022/09/18 03:47:24;;;;;;;0.10;0.10;;;;;;;12.11;85.84;98242.03;5071498;28;20198;-81
2022/09/18 03:49:50;;;;;;;0.33;0.30;;;;;;;12.05;85.10;98253.66;5071181;28;20199;-81
2022/09/18 03:52:19;;;;;;;0.30;0.30;;;;;;;12.09;84.33;98254.16;5071460;28;20245;-81
2022/09/18 03:54:46;;;;;;;0.10;0.10;;;;;;;12.11;83.15;98272.78;5070905;28;20603;-81
2022/09/18 03:57:13;;;;;;;0.30;0.20;;;;;;;12.08;82.47;98273.88;5071678;28;20210;-80
2022/09/18 03:59:40;;;;;;;0.10;0.10;;;;;;;12.00;81.78;98279.69;5072433;28;20206;-81
2022/09/18 04:02:07;;;;;;;0.10;0.10;;;;;;;12.02;81.54;98281.31;5072131;28;20222;-81
2022/09/18 04:04:34;;;;;;;0.20;0.20;;;;;;;12.04;80.53;98282.75;5071983;28;20221;-79
2022/09/18 04:07:01;;;;;;;0.07;0.07;;;;;;;12.07;80.84;98289.38;5071174;28;20229;-81
2022/09/18 04:09:29;;;;;;;0.57;0.33;;;;;;;12.11;80.83;98298.41;5070696;28;20206;-80
2022/09/18 04:11:56;;;;;;;0.40;0.40;;;;;;;12.13;80.41;98301.63;5071668;28;20483;-80
2022/09/18 04:14:23;;;;;;;0.20;0.20;;;;;;;12.13;79.86;98301.63;5073413;28;20202;-81
2022/09/18 04:16:50;;;;;;;0.20;0.20;;;;;;;12.14;80.09;98310.94;5071283;28;20233;-81
2022/09/18 04:19:17;;;;;;;0.10;0.10;;;;;;;12.14;80.03;98316.06;5072790;28;20206;-80
2022/09/18 04:21:44;;;;;;;0.10;0.10;;;;;;;12.28;79.77;98332.75;5075691;28;20229;-81
2022/09/18 04:24:11;;;;;;;0.33;0.33;;;;;;;12.29;80.66;98342.84;5074691;28;20206;-81
2022/09/18 04:26:39;;;;;;;0.10;0.10;;;;;;;12.33;80.75;98346.75;5074817;28;20219;-81
2022/09/18 04:29:06;;;;;;;0.10;0.10;;;;;;;12.35;81.54;98342.28;5074649;28;20203;-81
2022/09/18 04:31:33;;;;;;;0.40;0.40;;;;;;;12.30;81.58;98339.31;5074944;28;20241;-81
2022/09/18 04:34:00;;;;;;;0.20;0.20;;;;;;;12.28;81.44;98348.94;5074362;28;20566;-81
2022/09/18 04:36:26;;;;;;;0.57;0.47;;;;;;;12.26;81.68;98350.81;5074352;28;20727;-81
2022/09/18 04:38:53;;;;;;;0.10;0.10;;;;;;;12.26;82.32;98343.13;5073532;28;20818;-80
2022/09/18 04:41:20;;;;;;;0.33;0.33;;;;;;;12.25;82.48;98346.66;5074631;28;20726;-81
2022/09/18 04:43:48;;;;;;;0.20;0.20;;;;;;;12.12;83.04;98358.94;5074210;28;20597;-80
2022/09/18 04:46:17;;;;;;;0.27;0.27;;;;;;;12.14;82.56;98362.19;5075103;28;20222;-81
2022/09/18 04:48:47;;;;;;;0.20;0.20;;;;;;;12.14;82.31;98369.88;5074462;28;20231;-81
2022/09/18 04:51:14;;;;;;;0.10;0.10;;;;;;;12.12;81.84;98371.75;5074420;28;20692;-81
2022/09/18 04:53:41;;;;;;;0.17;0.17;;;;;;;12.05;82.16;98373.28;5073951;28;20210;-81
2022/09/18 04:56:08;;;;;;;0.20;0.20;;;;;;;12.06;82.12;98372.31;5075104;28;20227;-81
2022/09/18 04:58:34;;;;;;;0.10;0.10;;;;;;;12.16;82.05;98373.13;5074445;28;20207;-80
2022/09/18 05:01:03;;;;;;;0.40;0.40;;;;;;;12.16;81.66;98378.25;5074202;28;20230;-81
2022/09/18 05:03:29;;;;;;;0.40;0.40;;;;;;;12.15;80.55;98376.59;5075000;28;20195;-81
2022/09/18 05:05:56;;;;;;;0.20;0.20;;;;;;;12.13;80.62;98396.44;5075250;28;20225;-80
2022/09/18 05:08:23;;;;;;;0.77;0.50;;;;;;;12.20;80.56;98390.63;5074121;28;20273;-80
2022/09/18 05:10:50;;;;;;;0.40;0.30;;;;;;;12.31;80.39;98389.66;5073845;28;20863;-80
2022/09/18 05:13:17;;;;;;;0.30;0.30;;;;;;;12.32;80.13;98404.09;5073661;28;20218;-81
2022/09/18 05:15:44;;;;;;;0.20;0.20;;;;;;;12.31;79.45;98415.28;5073959;28;20257;-80
2022/09/18 05:18:13;;;;;;;0.47;0.40;;;;;;;12.32;80.05;98434.84;5073030;28;20202;-80
2022/09/18 05:20:39;;;;;;;0.50;0.50;;;;;;;12.43;79.72;98432.13;5074057;28;20218;-81
2022/09/18 05:23:06;;;;;;;0.20;0.20;;;;;;;12.48;79.00;98433.44;5074256;28;20214;-80
2022/09/18 05:25:33;;;;;;;0.40;0.40;;;;;;;12.53;78.98;98434.66;5074098;28;20218;-81
2022/09/18 05:28:02;;;;;;;0.50;0.50;;;;;;;12.49;78.69;98438.47;5073719;28;20202;-81
2022/09/18 05:30:30;;;;;;;0.20;0.20;;;;;;;12.53;78.98;98441.53;5073962;28;20294;-80
2022/09/18 05:32:58;;;;;;;0.40;0.40;;;;;;;12.51;78.61;98446.00;5073110;28;20796;-80
2022/09/18 05:35:28;;;;;;;0.30;0.30;;;;;;;12.55;78.95;98452.47;5073337;28;20726;-80
2022/09/18 05:37:56;;;;;;;0.77;0.60;;;;;;;12.60;78.71;98443.44;5073617;28;20241;-80
2022/09/18 05:40:24;;;;;;;0.30;0.30;;;;;;;12.65;77.27;98443.00;5073551;28;20249;-80
2022/09/18 05:42:52;;;;;;;0.80;0.53;;;;;;;12.89;76.79;98468.97;5073339;28;20207;-81
2022/09/18 05:45:20;;;;;;;0.57;0.50;;;;;;;13.41;75.65;98439.44;5072978;28;20219;-82
2022/09/18 05:47:54;;;;;;;0.40;0.40;;;;;;;13.92;74.11;98435.44;5072799;28;20606;-82
2022/09/18 05:50:22;;;;;;;0.60;0.60;;;;;;;14.14;71.24;98450.41;5073097;28;20227;-81
2022/09/18 05:52:58;;;;;;;0.40;0.40;;;;;;;14.11;72.21;98463.56;5072102;28;20235;-81
2022/09/18 05:55:27;;;;;;;0.40;0.40;;;;;;;13.75;71.77;98465.31;5072614;28;20223;-81
2022/09/18 05:57:55;;;;;;;0.50;0.50;;;;;;;13.72;73.02;98452.75;5072374;28;20289;-82
2022/09/18 06:00:22;;;;;;;0.50;0.50;;;;;;;13.61;71.85;98456.34;5073035;28;20246;-81
2022/09/18 06:02:54;;;;;;;0.57;0.40;;;;;;;13.54;73.51;98457.88;5073952;28;20233;-82
2022/09/18 06:05:21;;;;;;;0.40;0.40;;;;;;;13.93;73.31;98452.44;5073882;28;20227;-82
2022/09/18 06:07:48;;;;;;;0.87;0.70;;;;;;;14.53;70.63;98450.03;5073356;28;20207;-81
2022/09/18 06:10:17;;;;;;;0.43;0.43;;;;;;;14.80;68.98;98467.06;5073444;28;20220;-81
2022/09/18 06:12:43;;;;;;;0.40;0.40;;;;;;;15.04;68.13;98474.13;5073114;28;20241;-81
2022/09/18 06:15:11;;;;;;;0.53;0.53;;;;;;;15.38;67.43;98486.16;5072977;28;20227;-81
2022/09/18 06:17:38;;;;;;;1.00;0.83;;;;;;;15.74;66.00;98481.63;5072374;28;20239;-81
2022/09/18 06:20:07;;;;;;;1.10;1.00;;;;;;;15.91;63.81;98473.88;5071233;28;20232;-84
2022/09/18 06:22:34;;;;;;;0.60;0.60;;;;;;;15.87;63.50;98481.13;5071673;28;20202;-82
2022/09/18 06:25:01;;;;;;;0.60;0.60;;;;;;;15.89;63.37;98484.38;5071321;28;20206;-81
2022/09/18 06:27:29;;;;;;;1.10;1.00;;;;;;;16.00;62.91;98472.94;5072107;28;20203;-81
2022/09/18 06:29:56;;;;;;;1.50;1.07;;;;;;;15.96;61.67;98482.75;5071725;28;20203;-82
2022/09/18 06:32:23;;;;;;;0.70;0.40;;;;;;;15.81;61.85;98471.47;5073770;28;20234;-81
2022/09/18 06:34:50;;;;;;;0.60;0.60;;;;;;;15.85;62.17;98493.38;5073076;28;20202;-82
2022/09/18 06:37:17;;;;;;;0.70;0.70;;;;;;;16.10;60.22;98506.31;5073025;28;20218;-82
2022/09/18 06:39:44;;;;;;;0.70;0.70;;;;;;;16.23;61.13;98496.28;5072891;28;20204;-83
2022/09/18 06:42:11;;;;;;;0.53;0.53;;;;;;;16.22;60.89;98517.91;5071259;28;20701;-81
2022/09/18 06:44:39;;;;;;;0.60;0.60;;;;;;;16.41;60.03;98501.31;5072124;28;20202;-82
2022/09/18 06:47:07;;;;;;;0.70;0.70;;;;;;;16.54;60.06;98506.78;5071710;28;20236;-82
2022/09/18 06:49:34;;;;;;;0.40;0.40;;;;;;;16.39;60.13;98522.09;5071408;28;20199;-79
2022/09/18 06:52:01;;;;;;;0.70;0.70;;;;;;;16.37;59.49;98521.44;5072561;28;20237;-80
2022/09/18 06:54:28;;;;;;;0.70;0.50;;;;;;;16.18;59.99;98519.22;5071858;28;20593;-80
2022/09/18 06:56:55;;;;;;;0.90;0.80;;;;;;;16.45;59.91;98508.56;5071499;28;20215;-80
2022/09/18 06:59:22;;;;;;;0.30;0.30;;;;;;;16.48;59.36;98508.22;5071768;28;20642;-80
2022/09/18 07:01:50;;;;;;;0.70;0.70;;;;;;;16.73;58.88;98490.13;5072318;28;20226;-80
2022/09/18 07:04:17;;;;;;;0.67;0.63;;;;;;;16.77;57.29;98503.56;5073005;28;20697;-80
2022/09/18 07:06:45;;;;;;;0.60;0.60;;;;;;;16.77;57.40;98488.84;5071725;28;20218;-80
2022/09/18 07:09:12;;;;;;;0.60;0.60;;;;;;;16.84;56.96;98489.81;5071921;28;20246;-80
2022/09/18 07:11:39;;;;;;;0.43;0.43;;;;;;;17.13;57.75;98478.91;5071444;28;20614;-80
2022/09/18 07:14:07;;;;;;;1.53;1.13;;;;;;;17.34;56.50;98495.63;5071854;28;20193;-81
2022/09/18 07:16:34;;;;;;;0.73;0.50;;;;;;;17.37;56.36;98508.22;5072522;28;20244;-80
2022/09/18 07:19:03;;;;;;;0.67;0.67;;;;;;;17.35;56.77;98503.19;5071466;28;20212;-81
2022/09/18 07:21:30;;;;;;;1.00;0.47;;;;;;;17.38;57.05;98502.84;5071645;28;20674;-81
2022/09/18 07:23:57;;;;;;;0.40;0.40;;;;;;;17.56;55.86;98494.03;5071759;28;20589;-82
2022/09/18 07:26:24;;;;;;;0.60;0.60;;;;;;;17.55;56.59;98508.75;5071265;28;20226;-80
2022/09/18 07:28:51;;;;;;;0.70;0.60;;;;;;;17.89;54.62;98505.03;5071317;28;20210;-80
2022/09/18 07:31:19;;;;;;;0.43;0.43;;;;;;;18.01;54.85;98510.63;5071630;28;20220;-80
2022/09/18 07:33:51;;;;;;;0.73;0.60;;;;;;;18.09;53.58;98500.19;5070895;28;20238;-79
2022/09/18 07:36:20;;;;;;;0.67;0.67;;;;;;;18.20;55.27;98520.47;5070915;28;20263;-81
2022/09/18 07:38:50;;;;;;;0.67;0.67;;;;;;;18.35;52.12;98519.72;5071886;28;20196;-80
2022/09/18 07:41:17;;;;;;;1.03;0.80;;;;;;;18.05;52.18;98509.28;5071264;28;20292;-80
2022/09/18 07:43:44;;;;;;;0.60;0.53;;;;;;;18.15;52.84;98489.19;5071479;28;20202;-80
2022/09/18 07:46:11;;;;;;;0.63;0.63;;;;;;;18.15;52.11;98509.88;5070712;28;20233;-82
2022/09/18 07:48:38;;;;;;;0.40;0.40;;;;;;;18.31;52.60;98504.56;5070817;28;20195;-81
2022/09/18 07:51:05;;;;;;;0.60;0.53;;;;;;;18.29;51.96;98513.47;5070825;28;20243;-80
2022/09/18 07:53:36;;;;;;;0.77;0.70;;;;;;;18.52;52.60;98498.69;5073209;28;20246;-80
2022/09/18 07:56:07;;;;;;;0.67;0.60;;;;;;;18.33;51.72;98512.94;5075378;28;20653;-81
2022/09/18 07:58:34;;;;;;;0.53;0.53;;;;;;;18.42;50.98;98505.13;5075194;28;20572;-81
2022/09/18 08:01:02;;;;;;;0.40;0.40;;;;;;;18.49;51.43;98522.34;5074987;28;20220;-81
2022/09/18 08:03:29;;;;;;;0.50;0.50;;;;;;;18.51;50.31;98525.56;5074964;28;20649;-81
2022/09/18 08:05:56;;;;;;;1.37;1.00;;;;;;;18.48;49.92;98530.31;5075486;28;20221;-81
2022/09/18 08:08:24;;;;;;;0.70;0.63;;;;;;;18.72;51.76;98532.66;5075455;28;20746;-81
2022/09/18 08:10:52;;;;;;;5.30;0.80;;;;;;;18.76;50.32;98544.31;5074744;28;20759;-79
2022/09/18 08:13:19;;;;;;;0.40;0.40;;;;;;;18.85;48.58;98552.00;5075399;28;20237;-80
2022/09/18 08:15:46;;;;;;;0.40;0.40;;;;;;;18.93;49.97;98575.22;5075323;28;20426;-80
2022/09/18 08:18:13;;;;;;;0.50;0.50;;;;;;;19.11;50.28;98557.56;5075097;28;20205;-80
2022/09/18 08:20:40;;;;;;;0.40;0.40;;;;;;;19.27;48.71;98559.16;5075154;28;20227;-80
2022/09/18 08:23:08;;;;;;;0.50;0.50;;;;;;;19.45;47.95;98574.34;5075235;28;20596;-80
2022/09/18 08:25:36;;;;;;;0.30;0.30;;;;;;;19.52;48.62;98585.63;5076780;28;20225;-80
2022/09/18 08:28:06;;;;;;;0.50;0.47;;;;;;;19.68;48.12;98582.84;5075306;28;20521;-80
2022/09/18 08:30:34;;;;;;;0.43;0.43;;;;;;;19.80;47.53;98577.19;5074252;28;20586;-80
2022/09/18 08:33:01;;;;;;;0.60;0.60;;;;;;;19.74;49.05;98580.53;5074634;28;20228;-81
2022/09/18 08:35:29;;;;;;;0.73;0.60;;;;;;;19.82;48.60;98575.22;5074424;28;20233;-81
2022/09/18 08:37:56;;;;;;;0.53;0.53;;;;;;;19.16;49.35;98569.97;5075646;28;20206;-81
2022/09/18 08:40:48;;;;;;;0.50;0.50;;;;;;;18.89;49.55;98558.44;5075881;28;20706;-79
2022/09/18 08:43:26;;;;;;;0.83;0.80;;;;;;;18.87;49.39;98560.41;5075950;28;20194;-80
2022/09/18 08:45:59;;;;;;;0.20;0.20;;;;;;;19.38;50.14;98573.47;5074769;28;20276;-80
2022/09/18 08:48:29;;;;;;;0.37;0.37;;;;;;;19.37;48.98;98587.41;5074935;28;20210;-80
2022/09/18 08:51:02;;;;;;;0.60;0.60;;;;;;;19.62;49.35;98578.34;5074200;28;20388;-80
2022/09/18 08:53:35;;;;;;;0.53;0.53;;;;;;;19.75;48.48;98566.56;5073572;28;20235;-80
2022/09/18 08:56:04;;;;;;;0.40;0.40;;;;;;;19.80;47.37;98564.22;5073546;28;20233;-80
2022/09/18 08:58:36;;;;;;;0.63;0.60;;;;;;;19.66;47.55;98577.06;5073614;28;20208;-80
2022/09/18 09:01:08;;;;;;;0.37;0.37;;;;;;;19.70;47.71;98556.75;5073412;28;20227;-79
2022/09/18 09:03:49;;;;;;;0.40;0.40;;;;;;;19.74;47.92;98577.91;5073505;28;20214;-81
2022/09/18 09:06:30;;;;;;;0.30;0.30;;;;;;;19.85;46.51;98567.06;5073335;28;20225;-81
2022/09/18 09:09:31;;;;;;;0.47;0.47;;;;;;;19.77;46.67;98551.63;5074797;28;20675;-80
2022/09/18 09:12:07;;;;;;;0.50;0.50;;;;;;;19.74;46.72;98575.31;5075814;28;20227;-81
2022/09/18 09:15:02;;;;;;;0.67;0.50;;;;;;;19.97;47.25;98568.19;5075290;28;20377;-82
2022/09/18 09:17:39;;;;;;;0.40;0.40;;;;;;;20.02;47.00;98593.63;5074264;28;20299;-80
2022/09/18 09:20:20;;;;;;;0.50;0.50;;;;;;;20.15;48.27;98585.16;5073533;28;20223;-81
2022/09/18 09:22:54;;;;;;;0.57;0.53;;;;;;;20.18;47.50;98611.53;5073199;28;20225;-81
2022/09/18 09:25:27;;;;;;;0.40;0.40;;;;;;;20.34;45.88;98602.72;5073514;28;20223;-81
2022/09/18 09:28:00;;;;;;;0.60;0.60;;;;;;;20.31;46.29;98610.88;5073523;28;20262;-81
2022/09/18 09:30:33;;;;;;;0.43;0.43;;;;;;;19.88;45.50;98590.06;5072960;28;20229;-80
2022/09/18 09:33:08;;;;;;;0.37;0.37;;;;;;;20.05;45.45;98591.44;5073100;28;20608;-81
2022/09/18 09:35:40;;;;;;;0.60;0.60;;;;;;;20.08;46.47;98600.66;5072369;28;20227;-80
2022/09/18 09:38:28;;;;;;;1.63;0.63;;;;;;;20.34;46.18;98594.94;5073457;28;20206;-81
2022/09/18 09:40:59;;;;;;;0.60;0.60;;;;;;;20.48;46.28;98590.66;5078381;28;20213;-82
2022/09/18 09:43:33;;;;;;;1.23;0.60;;;;;;;20.63;44.19;98583.63;5077272;28;20212;-81
2022/09/18 09:46:10;;;;;;;0.70;0.60;;;;;;;20.64;44.10;98576.63;5075086;28;20221;-81
2022/09/18 09:48:46;;;;;;;0.50;0.50;;;;;;;20.42;45.26;98592.22;5075198;28;20197;-81
2022/09/18 09:51:22;;;;;;;0.60;0.53;;;;;;;20.61;44.16;98610.78;5074338;28;20325;-80
2022/09/18 09:53:52;;;;;;;0.57;0.57;;;;;;;20.51;45.78;98590.28;5073660;28;20622;-81
2022/09/18 09:56:27;;;;;;;0.73;0.40;;;;;;;20.96;45.31;98599.44;5072348;28;20373;-81
2022/09/18 09:58:59;;;;;;;0.40;0.40;;;;;;;20.50;44.54;98602.44;5072783;28;20279;-80
2022/09/18 10:01:32;;;;;;;0.30;0.30;;;;;;;20.56;45.13;98598.34;5072328;28;20226;-80
2022/09/18 10:04:13;;;;;;;1.10;1.00;;;;;;;20.95;43.86;98613.44;5072016;28;20207;-80
2022/09/18 10:06:47;;;;;;;0.60;0.60;;;;;;;20.82;43.84;98597.75;5072082;28;20423;-81
2022/09/18 10:09:24;;;;;;;0.50;0.50;;;;;;;20.34;45.22;98611.31;5072228;28;20195;-81
2022/09/18 10:11:58;;;;;;;0.77;0.77;;;;;;;20.63;44.94;98619.19;5072639;28;20229;-81
2022/09/18 10:14:28;;;;;;;1.30;1.10;;;;;;;20.80;44.30;98636.91;5074353;28;20243;-81
2022/09/18 10:16:57;;;;;;;0.80;0.80;;;;;;;21.08;45.08;98628.31;5074062;28;20252;-81
2022/09/18 10:19:37;;;;;;;0.50;0.50;;;;;;;21.17;44.33;98631.56;5074479;28;20204;-82
2022/09/18 10:22:07;;;;;;;0.67;0.53;;;;;;;20.75;43.55;98633.28;5074420;28;20226;-80
2022/09/18 10:24:43;;;;;;;0.77;0.67;;;;;;;21.12;44.65;98644.34;5073084;28;20216;-82
2022/09/18 10:27:12;;;;;;;0.43;0.40;;;;;;;21.20;43.35;98641.59;5072578;28;20198;-81
2022/09/18 10:29:39;;;;;;;0.50;0.50;;;;;;;21.17;43.17;98642.78;5072108;28;20210;-80
2022/09/18 10:32:10;;;;;;;0.60;0.60;;;;;;;21.12;43.86;98631.34;5072052;28;20275;-81
2022/09/18 10:34:42;;;;;;;0.50;0.47;;;;;;;21.26;42.83;98640.84;5071218;28;20234;-80
2022/09/18 10:37:17;;;;;;;0.53;0.53;;;;;;;21.31;43.85;98643.66;5070872;28;20224;-82
2022/09/18 10:39:51;;;;;;;0.30;0.30;;;;;;;21.41;42.84;98643.34;5071161;28;20192;-83
2022/09/18 10:42:22;;;;;;;1.50;0.80;;;;;;;21.32;43.85;98650.50;5070573;28;20214;-82
2022/09/18 10:44:52;;;;;;;0.63;0.63;;;;;;;21.31;42.79;98654.06;5072548;28;20748;-83
2022/09/18 10:47:26;;;;;;;0.70;0.70;;;;;;;21.38;41.89;98660.16;5073239;28;20279;-82
2022/09/18 10:49:55;;;;;;;1.20;1.10;;;;;;;21.44;42.86;98649.00;5072396;28;20207;-82
2022/09/18 10:52:30;;;;;;;1.43;1.03;;;;;;;21.40;42.28;98668.56;5072333;28;20201;-82
2022/09/18 10:55:11;;;;;;;0.70;0.70;;;;;;;21.58;42.40;98649.03;5072271;28;20232;-83
2022/09/18 10:57:42;;;;;;;0.50;0.50;;;;;;;21.44;41.27;98643.78;5071657;28;20205;-83
2022/09/18 11:00:38;;;;;;;0.50;0.50;;;;;;;21.39;42.71;98656.56;5071284;28;20226;-83
2022/09/18 11:03:24;;;;;;;1.07;0.40;;;;;;;21.15;42.33;98636.97;5066401;28;20203;-83
2022/09/18 11:05:55;;;;;;;2.77;0.60;;;;;;;20.80;42.32;98646.50;5070970;28;20225;-82
2022/09/18 11:08:25;;;;;;;0.57;0.37;;;;;;;20.85;43.28;98651.13;5071205;28;20207;-82
2022/09/18 11:11:01;;;;;;;0.30;0.30;;;;;;;20.59;42.62;98668.09;5071041;28;20220;-82
2022/09/18 11:13:29;;;;;;;1.50;0.67;;;;;;;20.67;42.81;98654.97;5070793;28;20260;-82
2022/09/18 11:15:58;;;;;;;0.63;0.63;;;;;;;20.73;41.98;98671.63;5070884;28;20277;-82
2022/09/18 11:18:27;;;;;;;0.50;0.50;;;;;;;20.85;42.77;98664.91;5072650;28;20207;-81
2022/09/18 11:20:57;;;;;;;0.60;0.60;;;;;;;20.79;41.81;98666.47;5072266;28;20607;-82
2022/09/18 11:23:27;;;;;;;0.57;0.50;;;;;;;20.97;41.64;98671.25;5053835;28;20636;-80
2022/09/18 11:26:19;;;;;;;3.03;0.70;;;;;;;20.98;41.05;98688.44;5072074;28;20281;-82
2022/09/18 11:29:00;;;;;;;0.47;0.47;;;;;;;20.54;40.70;98663.47;5070880;28;20212;-81
2022/09/18 11:31:37;;;;;;;0.80;0.70;;;;;;;20.57;40.42;98683.88;5071522;28;20228;-81
2022/09/18 11:34:15;;;;;;;0.30;0.30;;;;;;;20.45;40.92;98674.94;5071471;28;20241;-81
2022/09/18 11:36:49;;;;;;;0.67;0.60;;;;;;;20.68;40.32;98692.16;5071841;28;20243;-80
2022/09/18 11:39:23;;;;;;;0.30;0.30;;;;;;;21.12;39.70;98696.31;5071667;28;20625;-81
2022/09/18 11:41:51;;;;;;;0.40;0.40;;;;;;;21.05;39.33;98690.28;5070548;28;20271;-80
2022/09/18 11:44:23;;;;;;;0.40;0.40;;;;;;;20.99;40.44;98708.22;5071031;28;20211;-81
2022/09/18 11:47:05;;;;;;;0.50;0.50;;;;;;;20.76;40.16;98699.81;5071099;28;20248;-80
2022/09/18 11:49:39;;;;;;;0.60;0.60;;;;;;;20.65;40.76;98711.50;5070833;28;20192;-80